Time;durP1;ratioP1;P1;durP2;ratioP2;P2;SDS_P1;SDS_P2;PMS_P1;PMS_P2;Temp;Humidity;BMP_temperature;BMP_pressure;BME280_temperature;BME280_humidity;BME280_pressure;Samples;Min_cycle;Max_cycle;Signal;HPM_P1;HPM_P2
2023/09/14 00:00:24;;;;;;;33.88;24.33;;;19.90;99.90;;;;;;5093052;28;20314;-77
2023/09/14 00:02:57;;;;;;;32.03;23.17;;;20.00;99.90;;;;;;5093191;28;20190;-76
2023/09/14 00:05:28;;;;;;;28.77;22.15;;;20.10;99.90;;;;;;5093095;28;20188;-77
2023/09/14 00:07:59;;;;;;;29.38;22.35;;;20.20;99.90;;;;;;5093237;28;20189;-77
2023/09/14 00:10:30;;;;;;;32.25;23.25;;;20.30;99.90;;;;;;5092745;28;20587;-76
2023/09/14 00:13:01;;;;;;;32.45;23.25;;;20.40;99.90;;;;;;5093097;28;20191;-78
2023/09/14 00:15:32;;;;;;;24.77;19.92;;;20.50;99.90;;;;;;5092948;28;20192;-77
2023/09/14 00:18:05;;;;;;;27.27;21.10;;;20.60;99.90;;;;;;5092189;28;20203;-77
2023/09/14 00:20:36;;;;;;;26.95;21.35;;;20.80;99.90;;;;;;5080921;28;20212;-77
2023/09/14 00:23:06;;;;;;;23.65;18.05;;;20.80;99.90;;;;;;5087880;28;20204;-77
2023/09/14 00:25:37;;;;;;;21.75;14.75;;;20.90;99.90;;;;;;5073519;28;20204;-76
2023/09/14 00:28:09;;;;;;;17.67;14.25;;;21.00;99.90;;;;;;5076720;28;20185;-77
2023/09/14 00:30:39;;;;;;;18.83;13.43;;;21.20;99.90;;;;;;5093178;28;20199;-77
2023/09/14 00:33:12;;;;;;;16.83;12.02;;;21.40;99.90;;;;;;5092904;28;20271;-77
2023/09/14 00:35:43;;;;;;;21.25;13.27;;;21.60;99.90;;;;;;5091389;28;20192;-76
2023/09/14 00:38:14;;;;;;;14.73;11.60;;;21.70;99.90;;;;;;5072768;28;20551;-77
2023/09/14 00:40:45;;;;;;;16.70;10.95;;;21.80;99.90;;;;;;5082480;28;20212;-77
2023/09/14 00:43:16;;;;;;;12.77;10.02;;;21.90;99.90;;;;;;5092846;28;20195;-77
2023/09/14 00:45:46;;;;;;;21.00;12.13;;;22.10;99.90;;;;;;5092787;28;20266;-77
2023/09/14 00:48:19;;;;;;;14.07;10.13;;;22.20;99.90;;;;;;5088425;28;20192;-77
2023/09/14 00:50:51;;;;;;;14.63;9.98;;;22.40;99.90;;;;;;5091435;28;20663;-77
2023/09/14 00:53:22;;;;;;;13.10;8.48;;;22.60;99.90;;;;;;5092473;28;20238;-77
2023/09/14 00:55:53;;;;;;;11.77;8.40;;;22.70;99.90;;;;;;5092581;28;20723;-78
2023/09/14 00:58:24;;;;;;;10.52;8.25;;;22.90;99.90;;;;;;5092574;28;20185;-77
2023/09/14 01:00:57;;;;;;;12.40;7.93;;;23.00;99.90;;;;;;5091573;28;20238;-77
2023/09/14 01:03:30;;;;;;;9.88;7.28;;;23.10;99.90;;;;;;5096298;28;20192;-78
2023/09/14 01:06:01;;;;;;;9.07;7.28;;;23.30;99.90;;;;;;5096334;28;20685;-78
2023/09/14 01:08:32;;;;;;;10.68;7.03;;;23.40;99.90;;;;;;5096226;28;20651;-78
2023/09/14 01:11:03;;;;;;;11.52;7.38;;;23.60;99.90;;;;;;5096207;28;20192;-77
2023/09/14 01:13:41;;;;;;;10.57;6.50;;;23.80;99.90;;;;;;5096240;28;20189;-78
2023/09/14 01:16:17;;;;;;;9.45;7.05;;;23.90;99.90;;;;;;5096075;28;20568;-78
2023/09/14 01:18:55;;;;;;;7.80;6.03;;;23.90;99.90;;;;;;5096342;28;20195;-77
2023/09/14 01:21:43;;;;;;;8.98;5.70;;;24.00;99.90;;;;;;5095926;28;20310;-79
2023/09/14 01:24:25;;;;;;;9.77;6.18;;;24.00;99.90;;;;;;5096004;28;20617;-77
2023/09/14 01:26:59;;;;;;;6.60;5.40;;;24.10;99.90;;;;;;5095883;28;20629;-78
2023/09/14 01:29:30;;;;;;;7.50;5.20;;;24.20;99.90;;;;;;5095893;28;20219;-77
2023/09/14 01:32:01;;;;;;;8.27;5.40;;;24.30;99.90;;;;;;5095575;28;20223;-78
2023/09/14 01:34:32;;;;;;;8.10;5.45;;;24.40;99.90;;;;;;5095886;28;20218;-75
2023/09/14 01:37:06;;;;;;;6.35;5.35;;;24.50;99.90;;;;;;5088412;28;20197;-75
2023/09/14 01:39:38;;;;;;;6.15;5.20;;;24.60;99.90;;;;;;5090032;28;20251;-78
2023/09/14 01:42:11;;;;;;;7.20;5.47;;;24.70;99.90;;;;;;5095431;28;20188;-78
2023/09/14 01:44:42;;;;;;;6.15;4.40;;;24.60;99.90;;;;;;5096277;28;20220;-78
2023/09/14 01:47:13;;;;;;;10.27;5.75;;;24.60;99.90;;;;;;5096130;28;20192;-77
2023/09/14 01:49:44;;;;;;;7.90;5.18;;;24.60;99.90;;;;;;5095569;28;20267;-77
2023/09/14 01:52:15;;;;;;;5.45;4.68;;;24.60;99.90;;;;;;5094982;28;20575;-78
2023/09/14 01:54:49;;;;;;;5.32;4.10;;;24.80;99.90;;;;;;5089054;28;20197;-78
2023/09/14 01:57:22;;;;;;;10.82;4.90;;;25.00;99.90;;;;;;5075230;28;20231;-77
2023/09/14 01:59:54;;;;;;;5.18;4.50;;;25.20;99.90;;;;;;5075021;28;20221;-77
2023/09/14 02:02:25;;;;;;;7.93;4.65;;;25.40;99.90;;;;;;5075481;28;20268;-76
2023/09/14 02:04:56;;;;;;;5.25;4.18;;;25.40;99.90;;;;;;5075242;28;20279;-76
2023/09/14 02:07:26;;;;;;;9.00;4.00;;;25.50;99.90;;;;;;5074956;28;20196;-77
2023/09/14 02:09:57;;;;;;;9.25;4.35;;;25.40;99.90;;;;;;5075021;28;20195;-76
2023/09/14 02:12:30;;;;;;;5.03;3.72;;;25.40;99.90;;;;;;5088987;28;20207;-76
2023/09/14 02:15:00;;;;;;;4.50;4.00;;;25.50;99.90;;;;;;5092979;28;20199;-76
2023/09/14 02:17:31;;;;;;;5.65;3.67;;;25.50;99.90;;;;;;5094906;28;20628;-76
2023/09/14 02:20:02;;;;;;;4.95;3.83;;;25.50;99.90;;;;;;5094838;28;20214;-76
2023/09/14 02:22:33;;;;;;;4.57;3.65;;;25.60;99.90;;;;;;5094138;28;20287;-76
2023/09/14 02:25:04;;;;;;;5.10;3.45;;;25.70;99.90;;;;;;5094927;28;20188;-76
2023/09/14 02:27:38;;;;;;;7.78;3.75;;;25.70;99.90;;;;;;5094178;28;20196;-75
2023/09/14 05:58:54;;;;;;;10.18;6.53;;;23.20;99.90;;;;;;5111655;27;20592;-76
2023/09/14 06:01:25;;;;;;;13.57;6.10;;;23.10;99.90;;;;;;5095123;28;20216;-78
2023/09/14 06:03:55;;;;;;;9.55;6.30;;;23.10;99.90;;;;;;5090547;28;20279;-78
2023/09/14 06:06:26;;;;;;;8.48;5.95;;;23.00;99.90;;;;;;5090423;28;20215;-77
2023/09/14 06:08:57;;;;;;;8.40;5.90;;;22.90;99.90;;;;;;5092456;28;20192;-78
2023/09/14 06:11:29;;;;;;;7.85;5.95;;;22.90;99.90;;;;;;5090367;28;20184;-77
2023/09/14 06:14:02;;;;;;;9.85;6.15;;;22.90;99.90;;;;;;5090349;28;20189;-74
2023/09/14 06:16:33;;;;;;;9.18;6.10;;;22.80;99.90;;;;;;5090553;28;20640;-74
2023/09/14 06:19:04;;;;;;;7.68;5.78;;;22.70;99.90;;;;;;5090338;28;20645;-74
2023/09/14 06:21:36;;;;;;;10.38;5.40;;;22.60;99.90;;;;;;5090122;28;20558;-75
2023/09/14 06:24:07;;;;;;;10.55;6.10;;;22.60;99.90;;;;;;5090320;28;20194;-74
2023/09/14 06:26:38;;;;;;;9.20;5.22;;;22.50;99.90;;;;;;5089262;28;20619;-76
2023/09/14 06:29:12;;;;;;;6.88;5.30;;;22.60;99.90;;;;;;5101787;28;20557;-75
2023/09/14 06:31:44;;;;;;;12.32;6.35;;;22.60;99.90;;;;;;5090107;28;20207;-75
2023/09/14 06:34:14;;;;;;;8.38;5.40;;;22.50;99.90;;;;;;5090118;28;20192;-76
2023/09/14 06:36:45;;;;;;;6.10;4.68;;;22.50;99.90;;;;;;5089731;28;20192;-76
2023/09/14 06:39:16;;;;;;;6.90;4.93;;;22.30;99.90;;;;;;5087110;28;20573;-76
2023/09/14 06:41:47;;;;;;;9.25;4.80;;;22.20;99.90;;;;;;5089830;28;20321;-77
2023/09/14 06:44:21;;;;;;;7.53;4.63;;;22.20;99.90;;;;;;5089500;28;20184;-76
2023/09/14 06:46:51;;;;;;;8.15;4.72;;;22.20;99.90;;;;;;5090036;28;20279;-77
2023/09/14 06:49:22;;;;;;;7.00;4.70;;;22.20;99.90;;;;;;5089437;28;20185;-75
2023/09/14 06:51:53;;;;;;;7.45;4.85;;;22.10;99.90;;;;;;5089823;28;20572;-77
2023/09/14 06:54:24;;;;;;;7.82;4.50;;;22.00;99.90;;;;;;5089610;28;20188;-77
2023/09/14 06:56:55;;;;;;;6.43;4.40;;;21.90;99.90;;;;;;5101123;28;20255;-76
2023/09/14 06:59:27;;;;;;;7.22;4.90;;;21.80;99.90;;;;;;5098517;28;20193;-76
2023/09/14 07:01:58;;;;;;;7.65;4.35;;;21.70;99.90;;;;;;5089741;28;20211;-77
2023/09/14 07:04:29;;;;;;;7.40;4.13;;;21.60;99.90;;;;;;5089620;28;20629;-77
2023/09/14 07:07:00;;;;;;;6.40;4.07;;;21.50;99.90;;;;;;5089196;28;20801;-76
2023/09/14 07:09:30;;;;;;;7.88;4.13;;;21.40;99.90;;;;;;5079931;28;20192;-76
2023/09/14 07:12:02;;;;;;;6.05;4.25;;;21.20;99.90;;;;;;5076030;28;20189;-75
2023/09/14 07:14:35;;;;;;;6.28;4.30;;;21.20;99.90;;;;;;5074529;28;20242;-76
2023/09/14 07:17:06;;;;;;;9.40;5.00;;;21.10;99.90;;;;;;5067499;28;20193;-76
2023/09/14 07:19:37;;;;;;;9.15;4.43;;;21.00;99.90;;;;;;5076633;28;20196;-76
2023/09/14 07:22:08;;;;;;;9.38;4.55;;;21.00;99.90;;;;;;5064646;28;20592;-76
2023/09/14 07:24:38;;;;;;;4.82;3.78;;;20.90;99.90;;;;;;5075574;28;20200;-76
2023/09/14 07:27:09;;;;;;;5.75;3.50;;;20.80;99.90;;;;;;5075670;28;20193;-76
2023/09/14 07:29:42;;;;;;;7.22;3.80;;;20.70;99.90;;;;;;5075613;28;20181;-76
2023/09/14 07:32:12;;;;;;;5.63;3.80;;;20.70;99.90;;;;;;5075862;28;20243;-75
2023/09/14 07:34:43;;;;;;;6.03;3.85;;;20.60;99.90;;;;;;5075246;28;20189;-77
2023/09/14 07:37:14;;;;;;;5.97;3.67;;;20.60;99.90;;;;;;5055999;28;20223;-76
2023/09/14 07:39:46;;;;;;;5.25;3.85;;;20.40;99.90;;;;;;5075008;28;20185;-77
2023/09/14 07:42:16;;;;;;;8.63;4.03;;;20.40;99.90;;;;;;5075473;28;20189;-76
2023/09/14 07:44:49;;;;;;;5.75;3.60;;;20.30;99.90;;;;;;5075515;28;20564;-77
2023/09/14 07:47:20;;;;;;;9.32;3.75;;;20.20;99.90;;;;;;5075761;28;20204;-76
2023/09/14 07:49:50;;;;;;;5.45;3.50;;;20.10;99.90;;;;;;5074960;28;20564;-76
2023/09/14 07:52:21;;;;;;;5.40;3.33;;;20.00;99.90;;;;;;5074024;28;20186;-76
2023/09/14 07:54:52;;;;;;;7.72;3.20;;;20.00;99.90;;;;;;5075550;28;20637;-76
2023/09/14 07:57:23;;;;;;;4.72;3.55;;;19.90;99.90;;;;;;5073534;28;20233;-76
2023/09/14 07:59:56;;;;;;;5.72;3.35;;;19.90;99.90;;;;;;5074649;28;20277;-77
2023/09/14 08:02:27;;;;;;;5.40;3.70;;;19.80;99.90;;;;;;5074614;28;20633;-77
2023/09/14 08:04:58;;;;;;;4.43;3.38;;;19.80;99.90;;;;;;5077608;28;20283;-77
2023/09/14 08:07:29;;;;;;;5.25;3.58;;;19.70;99.90;;;;;;5074829;28;20197;-77
2023/09/14 08:09:59;;;;;;;5.03;3.72;;;19.70;99.90;;;;;;5074330;28;20193;-77
2023/09/14 08:12:30;;;;;;;6.38;3.60;;;19.60;99.90;;;;;;5074768;28;20193;-76
2023/09/14 08:15:03;;;;;;;5.97;3.60;;;19.50;99.90;;;;;;5074303;28;20276;-76
2023/09/14 08:17:33;;;;;;;4.80;3.47;;;19.40;99.90;;;;;;5074385;28;20213;-77
2023/09/14 08:20:05;;;;;;;8.50;4.10;;;19.30;99.90;;;;;;5073877;28;20197;-76
2023/09/14 08:22:35;;;;;;;5.18;3.33;;;19.30;99.90;;;;;;5075070;28;20211;-76
2023/09/14 08:25:07;;;;;;;8.23;3.80;;;19.30;99.90;;;;;;5074415;28;20656;-76
2023/09/14 08:27:38;;;;;;;5.68;3.63;;;19.20;99.90;;;;;;5074466;28;20193;-76
2023/09/14 08:30:13;;;;;;;6.57;4.13;;;19.20;99.90;;;;;;5074509;28;20230;-76
2023/09/14 08:32:44;;;;;;;5.78;3.83;;;19.10;99.90;;;;;;5074078;28;20589;-76
2023/09/14 08:35:25;;;;;;;6.50;3.83;;;19.10;99.90;;;;;;5072246;28;20633;-76
2023/09/14 08:37:56;;;;;;;7.82;3.70;;;19.10;99.90;;;;;;5076738;28;20214;-76
2023/09/14 08:40:29;;;;;;;5.22;3.60;;;19.00;99.90;;;;;;5076836;28;20201;-76
2023/09/14 08:43:01;;;;;;;6.40;3.92;;;19.00;99.90;;;;;;5074322;28;20211;-76
2023/09/14 08:45:35;;;;;;;6.30;4.25;;;19.00;99.90;;;;;;5073305;28;20208;-76
2023/09/14 08:48:07;;;;;;;7.03;4.10;;;18.90;99.90;;;;;;5074247;28;20664;-76
2023/09/14 08:50:39;;;;;;;5.03;3.60;;;18.90;99.90;;;;;;5054151;28;20196;-76
2023/09/14 08:53:10;;;;;;;5.60;3.25;;;18.80;99.90;;;;;;5056318;28;20649;-76
2023/09/14 08:55:40;;;;;;;5.22;3.08;;;18.80;99.90;;;;;;5080998;28;20202;-77
2023/09/14 08:58:13;;;;;;;9.13;3.42;;;18.80;99.90;;;;;;5073649;28;20585;-76
2023/09/14 09:00:46;;;;;;;5.47;3.08;;;18.70;99.90;;;;;;5073560;28;20228;-76
2023/09/14 09:03:17;;;;;;;7.00;3.28;;;18.70;99.90;;;;;;5073738;28;20557;-77
2023/09/14 09:05:48;;;;;;;6.65;3.13;;;18.70;99.90;;;;;;5073848;28;20185;-76
2023/09/14 09:08:20;;;;;;;7.95;3.38;;;18.70;99.90;;;;;;5073494;28;20200;-76
2023/09/14 09:10:52;;;;;;;5.13;2.75;;;18.60;99.90;;;;;;5073679;28;20185;-77
2023/09/14 09:13:22;;;;;;;6.07;3.50;;;18.60;99.90;;;;;;5075182;28;20208;-76
2023/09/14 09:15:55;;;;;;;6.53;3.35;;;18.60;99.90;;;;;;5073463;28;20189;-77
2023/09/14 09:18:26;;;;;;;4.28;3.10;;;18.50;99.90;;;;;;5073582;28;20584;-77
2023/09/14 09:20:57;;;;;;;4.93;3.33;;;18.50;99.90;;;;;;5073708;28;20193;-76
2023/09/14 09:23:29;;;;;;;4.40;2.70;;;18.50;99.90;;;;;;5073632;28;20215;-77
2023/09/14 09:26:00;;;;;;;4.25;3.00;;;18.40;99.90;;;;;;5073593;28;20203;-76
2023/09/14 09:28:32;;;;;;;4.95;2.90;;;18.40;99.90;;;;;;5069376;28;20201;-78
2023/09/14 09:31:05;;;;;;;4.68;3.00;;;18.40;99.90;;;;;;5062455;28;20220;-78
2023/09/14 09:33:40;;;;;;;4.45;2.53;;;18.40;99.90;;;;;;5068132;28;20200;-78
2023/09/14 09:36:20;;;;;;;3.67;2.70;;;18.30;99.90;;;;;;5072670;28;20674;-78
2023/09/14 09:38:58;;;;;;;5.28;2.75;;;18.30;99.90;;;;;;5072716;28;20217;-77
2023/09/14 09:41:29;;;;;;;3.95;2.47;;;18.20;99.90;;;;;;5072103;28;20197;-78
2023/09/14 09:44:00;;;;;;;3.75;2.53;;;18.20;99.90;;;;;;5072580;28;20200;-78
2023/09/14 09:46:37;;;;;;;3.75;2.75;;;18.20;99.90;;;;;;5073238;28;20193;-78
2023/09/14 09:49:18;;;;;;;3.63;2.80;;;18.20;99.90;;;;;;5063301;28;20201;-77
2023/09/14 09:51:49;;;;;;;4.38;2.60;;;18.10;99.90;;;;;;5072647;28;20201;-77
2023/09/14 09:54:23;;;;;;;3.42;2.30;;;18.10;99.90;;;;;;5072775;28;20266;-77
2023/09/14 09:56:55;;;;;;;5.15;2.70;;;18.00;99.90;;;;;;5072894;28;20263;-78
2023/09/14 09:59:26;;;;;;;3.65;2.58;;;18.00;99.90;;;;;;5072485;28;20244;-77
2023/09/14 10:01:59;;;;;;;3.97;2.53;;;17.90;99.90;;;;;;5072300;28;20645;-77
2023/09/14 10:04:31;;;;;;;3.50;2.20;;;17.90;99.90;;;;;;5073271;28;20204;-77
2023/09/14 10:07:06;;;;;;;5.32;2.90;;;17.80;99.90;;;;;;5072799;28;20211;-77
2023/09/14 10:09:37;;;;;;;4.22;2.72;;;17.70;99.90;;;;;;5072667;28;20196;-77
2023/09/14 10:12:08;;;;;;;3.88;2.33;;;17.70;99.90;;;;;;5072551;28;20280;-77
2023/09/14 10:14:42;;;;;;;3.42;2.40;;;17.60;99.90;;;;;;5062590;28;20196;-77
2023/09/14 10:17:22;;;;;;;4.97;2.58;;;17.60;99.90;;;;;;5072719;28;20736;-77
2023/09/14 10:19:53;;;;;;;4.88;2.40;;;17.60;99.90;;;;;;5073034;28;20252;-77
2023/09/14 10:22:26;;;;;;;4.93;2.33;;;17.50;99.90;;;;;;5070848;28;20197;-77
2023/09/14 10:24:58;;;;;;;4.57;2.30;;;17.50;99.90;;;;;;5072380;28;20197;-77
2023/09/14 10:27:30;;;;;;;4.57;2.20;;;17.50;99.90;;;;;;5072331;28;20652;-76
2023/09/14 10:30:02;;;;;;;2.83;2.40;;;17.40;99.90;;;;;;5072716;28;20645;-77
2023/09/14 10:32:38;;;;;;;3.47;1.95;;;17.40;99.90;;;;;;5072593;28;20204;-77
2023/09/14 10:35:10;;;;;;;3.53;2.35;;;17.40;99.90;;;;;;5072279;28;20250;-77
2023/09/14 10:37:46;;;;;;;2.38;2.00;;;17.30;99.90;;;;;;5073132;28;20208;-76
2023/09/14 10:40:17;;;;;;;4.00;2.42;;;17.20;99.90;;;;;;5068791;28;20197;-76
2023/09/14 10:42:47;;;;;;;2.85;2.33;;;17.10;99.90;;;;;;5066353;28;20199;-77
2023/09/14 10:45:19;;;;;;;4.03;2.38;;;17.10;99.90;;;;;;5069137;28;20197;-77
2023/09/14 10:47:54;;;;;;;3.80;2.20;;;17.00;99.90;;;;;;5076043;28;20208;-77
2023/09/14 10:50:25;;;;;;;3.47;2.60;;;17.00;99.90;;;;;;5076421;28;20196;-76
2023/09/14 10:52:58;;;;;;;3.33;2.22;;;17.00;99.90;;;;;;5075542;28;20231;-77
2023/09/14 10:55:29;;;;;;;3.63;2.38;;;17.00;99.90;;;;;;5076523;28;20201;-77
2023/09/14 10:58:00;;;;;;;5.75;2.45;;;17.00;99.90;;;;;;5075660;28;20225;-77
2023/09/14 11:00:38;;;;;;;4.40;2.30;;;17.00;99.90;;;;;;5075542;28;20219;-77
2023/09/14 11:03:12;;;;;;;4.40;2.40;;;17.00;99.90;;;;;;5072243;28;20200;-77
2023/09/14 11:05:46;;;;;;;2.90;2.00;;;17.00;99.90;;;;;;5076146;28;20203;-76
2023/09/14 11:08:18;;;;;;;3.30;2.20;;;16.90;99.90;;;;;;5076085;28;20718;-76
2023/09/14 11:10:59;;;;;;;3.00;2.22;;;16.90;99.90;;;;;;5075644;28;20196;-76
2023/09/14 11:13:35;;;;;;;3.83;2.60;;;16.90;99.90;;;;;;5075972;28;20201;-76
2023/09/14 11:16:24;;;;;;;4.70;2.50;;;16.90;99.90;;;;;;5063507;28;20262;-76
2023/09/14 11:18:58;;;;;;;4.05;3.00;;;16.90;99.90;;;;;;5075264;28;20645;-76
2023/09/14 11:21:55;;;;;;;7.00;3.65;;;16.80;99.90;;;;;;5075261;28;20200;-76
2023/09/14 11:24:36;;;;;;;16.60;9.75;;;16.80;99.90;;;;;;5056331;28;20209;-76
2023/09/14 11:27:07;;;;;;;13.25;9.30;;;16.80;99.90;;;;;;5075280;28;20200;-76
2023/09/14 11:29:46;;;;;;;11.40;7.63;;;16.80;99.90;;;;;;5075953;28;20200;-76
2023/09/14 11:32:23;;;;;;;9.63;5.68;;;16.80;99.90;;;;;;5062982;28;20193;-76
2023/09/14 11:34:59;;;;;;;6.07;4.22;;;16.70;99.90;;;;;;5067998;28;20193;-76
2023/09/14 11:37:31;;;;;;;4.55;3.20;;;16.70;99.90;;;;;;5074641;28;20251;-76
2023/09/14 11:40:02;;;;;;;4.75;3.38;;;16.70;99.90;;;;;;5075123;28;20252;-77
2023/09/14 11:43:23;;;;;;;4.10;2.50;;;16.70;99.90;;;;;;5075365;28;20197;-76
2023/09/14 11:45:58;;;;;;;4.95;2.20;;;16.60;99.90;;;;;;5074445;28;20224;-76
2023/09/14 11:48:33;;;;;;;4.45;2.20;;;16.60;99.90;;;;;;5073743;28;20184;-76
2023/09/14 11:51:08;;;;;;;2.47;2.28;;;16.60;99.90;;;;;;5075243;28;20189;-76
2023/09/14 11:53:39;;;;;;;3.35;2.05;;;16.60;99.90;;;;;;5074172;28;20699;-76
2023/09/14 11:56:10;;;;;;;3.25;2.30;;;16.60;99.90;;;;;;5074826;28;20246;-76
2023/09/14 11:58:41;;;;;;;3.28;2.13;;;16.60;99.90;;;;;;5073438;28;20240;-76
2023/09/14 12:01:12;;;;;;;3.60;2.22;;;16.60;99.90;;;;;;5074454;28;20695;-76
2023/09/14 12:03:43;;;;;;;5.88;2.10;;;16.60;99.90;;;;;;5075377;28;20212;-76
2023/09/14 12:06:15;;;;;;;3.05;2.53;;;16.60;99.90;;;;;;5074609;28;20189;-77
2023/09/14 12:08:52;;;;;;;4.95;2.50;;;16.60;99.90;;;;;;5074018;28;20197;-76
2023/09/14 12:11:23;;;;;;;5.00;2.67;;;16.60;99.90;;;;;;5074954;28;20276;-76
2023/09/14 12:13:54;;;;;;;4.43;2.72;;;16.60;99.90;;;;;;5074817;28;20189;-76
2023/09/14 12:16:27;;;;;;;4.55;2.97;;;16.60;99.90;;;;;;5074399;28;20185;-76
2023/09/14 12:18:58;;;;;;;5.30;3.45;;;16.60;99.90;;;;;;5078504;28;20309;-76
2023/09/14 12:21:31;;;;;;;5.72;3.35;;;16.60;99.90;;;;;;5078906;28;20589;-76
2023/09/14 12:24:02;;;;;;;5.88;3.53;;;16.60;99.90;;;;;;5074096;28;20239;-76
2023/09/14 12:26:34;;;;;;;5.82;3.65;;;16.60;99.90;;;;;;5074358;28;20657;-76
2023/09/14 12:29:05;;;;;;;6.05;3.95;;;16.50;99.90;;;;;;5074614;28;20196;-76
2023/09/14 12:31:37;;;;;;;6.22;3.80;;;16.50;99.90;;;;;;5074237;28;20679;-76
2023/09/14 12:34:09;;;;;;;6.47;4.00;;;16.40;99.90;;;;;;5074444;28;20250;-76
2023/09/14 12:36:44;;;;;;;6.35;3.97;;;16.40;99.90;;;;;;5074866;28;20208;-76
2023/09/14 12:39:16;;;;;;;7.88;4.47;;;16.40;99.90;;;;;;5074178;28;20216;-76
2023/09/14 12:41:51;;;;;;;8.30;4.68;;;16.40;99.90;;;;;;5073905;28;20590;-76
2023/09/14 12:44:25;;;;;;;9.32;5.07;;;16.30;99.90;;;;;;5074218;28;20188;-76
2023/09/14 12:46:56;;;;;;;8.80;5.13;;;16.30;99.90;;;;;;5070525;28;20200;-76
2023/09/14 12:49:27;;;;;;;9.18;5.57;;;16.20;99.90;;;;;;5074319;28;20233;-76
2023/09/14 12:52:00;;;;;;;8.80;5.38;;;16.20;99.90;;;;;;5073653;28;20184;-76
2023/09/14 12:54:30;;;;;;;7.82;5.35;;;16.20;99.90;;;;;;5090815;28;20291;-76
2023/09/14 12:57:10;;;;;;;7.78;5.22;;;16.20;99.90;;;;;;5089923;28;20723;-76
2023/09/14 13:00:00;;;;;;;8.07;5.60;;;16.10;99.90;;;;;;5073729;28;20696;-76
2023/09/14 13:02:35;;;;;;;7.68;5.20;;;16.10;99.90;;;;;;5054062;28;20194;-76
2023/09/14 13:05:09;;;;;;;8.40;5.63;;;16.10;99.90;;;;;;5054260;28;20277;-76
2023/09/14 13:07:48;;;;;;;8.85;5.45;;;16.10;99.90;;;;;;5053172;28;20196;-76
2023/09/14 13:10:22;;;;;;;9.55;5.60;;;16.00;99.90;;;;;;5061627;28;20189;-76
2023/09/14 13:12:55;;;;;;;10.00;5.35;;;16.00;99.90;;;;;;5073979;28;20189;-76
2023/09/14 13:15:26;;;;;;;7.47;5.15;;;16.00;99.90;;;;;;5053837;28;20190;-76
2023/09/14 13:17:58;;;;;;;10.77;5.82;;;16.00;99.90;;;;;;5053897;28;20229;-76
2023/09/14 13:20:30;;;;;;;6.57;5.43;;;15.90;99.90;;;;;;5069833;28;20252;-76
2023/09/14 13:23:04;;;;;;;9.43;6.10;;;15.90;99.90;;;;;;5073452;28;20275;-76
2023/09/14 13:25:35;;;;;;;8.38;5.85;;;15.90;99.90;;;;;;5073571;28;20253;-76
2023/09/14 13:28:06;;;;;;;7.10;5.38;;;15.80;99.90;;;;;;5073907;28;20653;-76
2023/09/14 13:30:38;;;;;;;8.77;5.45;;;15.80;99.90;;;;;;5073616;28;20197;-76
2023/09/14 13:33:09;;;;;;;8.15;5.53;;;15.80;99.90;;;;;;5073305;28;20657;-76
2023/09/14 13:35:40;;;;;;;8.50;5.63;;;15.80;99.90;;;;;;5073173;28;20557;-76
2023/09/14 13:38:13;;;;;;;8.60;5.80;;;15.80;99.90;;;;;;5073355;28;20185;-76
2023/09/14 13:40:44;;;;;;;7.90;5.93;;;15.80;99.90;;;;;;5073693;28;20255;-76
2023/09/14 13:43:15;;;;;;;11.57;6.38;;;15.80;99.90;;;;;;5073418;28;20200;-76
2023/09/14 13:45:45;;;;;;;7.50;6.10;;;15.70;99.90;;;;;;5092164;28;20207;-76
2023/09/14 13:48:16;;;;;;;7.60;5.75;;;15.70;99.90;;;;;;5079835;28;20276;-76
2023/09/14 13:50:47;;;;;;;7.30;5.70;;;15.70;99.90;;;;;;5073118;28;20193;-76
2023/09/14 13:53:20;;;;;;;7.57;5.80;;;15.70;99.90;;;;;;5073318;28;20199;-76
2023/09/14 13:55:51;;;;;;;7.82;5.57;;;15.70;99.90;;;;;;5073189;28;20193;-76
2023/09/14 13:58:22;;;;;;;7.97;5.70;;;15.60;99.90;;;;;;5072890;28;20238;-76
2023/09/14 14:00:53;;;;;;;7.57;5.47;;;15.60;99.90;;;;;;5072515;28;20315;-76
2023/09/14 14:03:23;;;;;;;11.55;6.65;;;15.60;99.90;;;;;;5072190;28;20545;-76
2023/09/14 14:05:54;;;;;;;9.18;5.90;;;15.50;99.90;;;;;;5071967;28;20189;-76
2023/09/14 14:08:27;;;;;;;9.25;6.18;;;15.50;99.90;;;;;;5072581;28;20185;-76
2023/09/14 14:10:58;;;;;;;7.55;5.72;;;15.50;99.90;;;;;;5072623;28;20242;-76
2023/09/14 14:13:29;;;;;;;7.40;5.57;;;15.50;99.90;;;;;;5072648;28;20280;-76
2023/09/14 14:16:00;;;;;;;8.23;5.70;;;15.40;99.90;;;;;;5072823;28;20552;-76
2023/09/14 14:18:31;;;;;;;8.05;5.57;;;15.40;99.90;;;;;;5072424;28;20189;-76
2023/09/14 14:21:01;;;;;;;5.53;4.57;;;15.40;99.90;;;;;;5075336;28;20209;-76
2023/09/14 14:23:34;;;;;;;9.50;5.47;;;15.40;99.90;;;;;;5076999;28;20199;-76
2023/09/14 14:26:05;;;;;;;7.47;5.53;;;15.30;99.90;;;;;;5077046;28;20199;-76
2023/09/14 14:28:36;;;;;;;6.80;5.15;;;15.40;99.90;;;;;;5076805;28;20211;-76
2023/09/14 14:31:06;;;;;;;7.78;5.63;;;15.30;99.90;;;;;;5076673;28;20192;-76
2023/09/14 14:33:37;;;;;;;9.73;5.75;;;15.30;99.90;;;;;;5076693;28;20559;-76
2023/09/14 14:36:08;;;;;;;9.10;6.20;;;15.30;99.90;;;;;;5068399;28;20197;-76
2023/09/14 14:38:41;;;;;;;7.53;5.43;;;15.20;99.90;;;;;;5075868;28;20203;-76
2023/09/14 14:41:11;;;;;;;8.18;5.72;;;15.20;99.90;;;;;;5076705;28;20208;-76
2023/09/14 14:43:42;;;;;;;9.30;6.70;;;15.10;99.90;;;;;;5076511;28;20199;-76
2023/09/14 14:46:13;;;;;;;9.80;6.65;;;15.10;99.90;;;;;;5076579;28;20645;-76
2023/09/14 14:48:45;;;;;;;10.10;6.85;;;15.00;99.90;;;;;;5076069;28;20183;-75
2023/09/14 14:51:16;;;;;;;10.52;6.93;;;14.90;99.90;;;;;;5076355;28;20236;-76
2023/09/14 14:53:50;;;;;;;9.52;6.95;;;14.90;99.90;;;;;;5076458;28;20185;-76
2023/09/14 14:56:20;;;;;;;9.65;6.90;;;14.90;99.90;;;;;;5076387;28;20195;-76
2023/09/14 14:58:54;;;;;;;8.38;6.20;;;14.90;99.90;;;;;;5076685;28;20559;-76
2023/09/14 15:01:25;;;;;;;8.32;6.22;;;14.90;99.90;;;;;;5076275;28;20264;-76
2023/09/14 15:03:55;;;;;;;10.43;6.63;;;14.90;99.90;;;;;;5076089;28;20185;-76
2023/09/14 15:06:28;;;;;;;9.05;6.40;;;14.90;99.90;;;;;;5076119;28;20185;-76
2023/09/14 15:09:01;;;;;;;9.05;6.43;;;14.90;99.90;;;;;;5076286;28;20193;-76
2023/09/14 15:11:32;;;;;;;10.15;6.75;;;14.90;99.90;;;;;;5075746;28;20228;-76
2023/09/14 15:14:04;;;;;;;9.43;6.65;;;14.90;99.90;;;;;;5076114;28;20531;-76
2023/09/14 15:16:34;;;;;;;10.32;6.55;;;14.80;99.90;;;;;;5076068;28;20232;-76
2023/09/14 15:19:05;;;;;;;10.98;6.50;;;14.80;99.90;;;;;;5075788;28;20228;-76
2023/09/14 15:21:36;;;;;;;8.35;6.25;;;14.80;99.90;;;;;;5075590;28;20259;-76
2023/09/14 15:24:09;;;;;;;10.02;6.78;;;14.70;99.90;;;;;;5076065;28;20281;-76
2023/09/14 15:26:40;;;;;;;9.65;6.45;;;14.70;99.90;;;;;;5075631;28;20185;-76
2023/09/14 15:29:11;;;;;;;8.68;6.45;;;14.70;99.90;;;;;;5075015;28;20196;-76
2023/09/14 15:31:43;;;;;;;8.95;6.30;;;14.70;99.90;;;;;;5075442;28;20587;-76
2023/09/14 15:34:14;;;;;;;10.93;6.50;;;14.70;99.90;;;;;;5075658;28;20564;-76
2023/09/14 15:36:45;;;;;;;10.52;6.10;;;14.70;99.90;;;;;;5075299;28;20561;-76
2023/09/14 15:39:18;;;;;;;8.10;6.40;;;14.70;99.90;;;;;;5055366;28;20247;-76
2023/09/14 15:41:50;;;;;;;8.35;6.50;;;14.70;99.90;;;;;;5055696;28;20221;-76
2023/09/14 15:44:21;;;;;;;9.30;6.40;;;14.70;99.90;;;;;;5055911;28;20630;-76
2023/09/14 15:46:51;;;;;;;11.32;6.75;;;14.70;99.90;;;;;;5056184;28;20192;-76
2023/09/14 15:49:24;;;;;;;9.48;6.50;;;14.70;99.90;;;;;;5075317;28;20279;-76
2023/09/14 15:51:56;;;;;;;9.63;6.53;;;14.60;99.90;;;;;;5075275;28;20192;-75
2023/09/14 15:54:29;;;;;;;8.75;6.20;;;14.60;99.90;;;;;;5075312;28;20185;-76
2023/09/14 15:56:59;;;;;;;9.27;6.35;;;14.60;99.90;;;;;;5074802;28;20224;-76
2023/09/14 15:59:30;;;;;;;9.38;6.05;;;14.60;99.90;;;;;;5075130;28;20221;-76
2023/09/14 16:02:02;;;;;;;9.23;6.70;;;14.60;99.90;;;;;;5074753;28;20201;-76
2023/09/14 16:04:33;;;;;;;11.05;6.93;;;14.60;99.90;;;;;;5075067;28;20229;-76
2023/09/14 16:07:04;;;;;;;9.43;6.72;;;14.50;99.90;;;;;;5074590;28;20192;-75
2023/09/14 16:09:37;;;;;;;9.00;6.65;;;14.60;99.90;;;;;;5075045;28;20189;-76
2023/09/14 16:12:08;;;;;;;8.52;6.35;;;14.50;99.90;;;;;;5074936;28;20199;-76
2023/09/14 16:14:39;;;;;;;7.97;6.15;;;14.50;99.90;;;;;;5074987;28;20200;-76
2023/09/14 16:17:11;;;;;;;9.60;6.65;;;14.50;99.90;;;;;;5074334;28;20193;-76
2023/09/14 16:19:44;;;;;;;8.25;6.40;;;14.40;99.90;;;;;;5074677;28;20185;-76
2023/09/14 16:22:14;;;;;;;9.98;6.55;;;14.40;99.90;;;;;;5074782;28;20208;-76
2023/09/14 16:24:48;;;;;;;10.43;6.70;;;14.40;99.90;;;;;;5074795;28;20207;-76
2023/09/14 16:27:18;;;;;;;9.10;6.38;;;14.40;99.90;;;;;;5074448;28;20276;-76
2023/09/14 16:29:49;;;;;;;8.65;6.40;;;14.30;99.90;;;;;;5074424;28;20239;-76
2023/09/14 16:32:20;;;;;;;11.70;6.95;;;14.30;99.90;;;;;;5074426;28;20189;-76
2023/09/14 16:34:51;;;;;;;10.10;7.00;;;14.30;99.90;;;;;;5074503;28;20193;-76
2023/09/14 16:37:22;;;;;;;9.57;6.18;;;14.30;99.90;;;;;;5071680;28;20275;-75
2023/09/14 16:39:55;;;;;;;8.73;6.40;;;14.30;99.90;;;;;;5074298;28;20726;-76